sensor_id;sensor_type;location;lat;lon;timestamp;P1;durP1;ratioP1;P2;durP2;ratioP2
7233;SDS011;3658;47.992;10.158;2024-01-30T00:00:37;4.03;;;3.60;;
7233;SDS011;3658;47.992;10.158;2024-01-30T00:03:04;3.77;;;3.40;;
7233;SDS011;3658;47.992;10.158;2024-01-30T00:05:31;4.60;;;3.70;;
7233;SDS011;3658;47.992;10.158;2024-01-30T00:07:58;4.30;;;3.87;;
7233;SDS011;3658;47.992;10.158;2024-01-30T00:10:24;4.53;;;3.73;;
7233;SDS011;3658;47.992;10.158;2024-01-30T00:12:51;4.57;;;3.20;;
7233;SDS011;3658;47.992;10.158;2024-01-30T00:15:19;4.47;;;4.07;;
7233;SDS011;3658;47.992;10.158;2024-01-30T00:17:46;5.23;;;4.17;;
7233;SDS011;3658;47.992;10.158;2024-01-30T00:20:13;4.30;;;3.77;;
7233;SDS011;3658;47.992;10.158;2024-01-30T00:22:40;4.40;;;4.00;;
7233;SDS011;3658;47.992;10.158;2024-01-30T00:25:07;5.17;;;4.03;;
7233;SDS011;3658;47.992;10.158;2024-01-30T00:27:34;4.10;;;3.67;;
7233;SDS011;3658;47.992;10.158;2024-01-30T00:30:01;4.47;;;3.40;;
7233;SDS011;3658;47.992;10.158;2024-01-30T00:32:29;4.90;;;3.90;;
7233;SDS011;3658;47.992;10.158;2024-01-30T00:34:56;6.97;;;4.73;;
7233;SDS011;3658;47.992;10.158;2024-01-30T00:37:23;4.03;;;3.63;;
7233;SDS011;3658;47.992;10.158;2024-01-30T00:39:50;4.87;;;3.83;;
7233;SDS011;3658;47.992;10.158;2024-01-30T00:42:16;4.00;;;3.60;;
7233;SDS011;3658;47.992;10.158;2024-01-30T00:44:44;4.47;;;4.07;;
7233;SDS011;3658;47.992;10.158;2024-01-30T00:47:11;5.23;;;4.57;;
7233;SDS011;3658;47.992;10.158;2024-01-30T00:49:39;4.87;;;4.00;;
7233;SDS011;3658;47.992;10.158;2024-01-30T00:52:06;4.47;;;4.03;;
7233;SDS011;3658;47.992;10.158;2024-01-30T00:54:32;4.80;;;3.90;;
7233;SDS011;3658;47.992;10.158;2024-01-30T00:56:59;4.53;;;3.87;;
7233;SDS011;3658;47.992;10.158;2024-01-30T00:59:26;4.70;;;4.20;;
7233;SDS011;3658;47.992;10.158;2024-01-30T01:01:52;4.20;;;3.80;;
7233;SDS011;3658;47.992;10.158;2024-01-30T01:04:19;5.10;;;3.60;;
7233;SDS011;3658;47.992;10.158;2024-01-30T01:06:48;4.53;;;3.53;;
7233;SDS011;3658;47.992;10.158;2024-01-30T01:09:15;3.97;;;3.37;;
7233;SDS011;3658;47.992;10.158;2024-01-30T01:11:42;3.83;;;3.43;;
7233;SDS011;3658;47.992;10.158;2024-01-30T01:14:09;5.03;;;3.60;;
7233;SDS011;3658;47.992;10.158;2024-01-30T01:16:36;3.87;;;3.50;;
7233;SDS011;3658;47.992;10.158;2024-01-30T01:19:02;4.50;;;3.83;;
7233;SDS011;3658;47.992;10.158;2024-01-30T01:21:29;3.73;;;3.33;;
7233;SDS011;3658;47.992;10.158;2024-01-30T01:23:57;3.90;;;3.60;;
7233;SDS011;3658;47.992;10.158;2024-01-30T01:26:24;4.63;;;3.63;;
7233;SDS011;3658;47.992;10.158;2024-01-30T01:28:51;4.37;;;3.70;;
7233;SDS011;3658;47.992;10.158;2024-01-30T01:31:17;3.73;;;3.30;;
7233;SDS011;3658;47.992;10.158;2024-01-30T01:33:47;3.30;;;3.00;;
7233;SDS011;3658;47.992;10.158;2024-01-30T01:36:14;3.90;;;3.50;;
7233;SDS011;3658;47.992;10.158;2024-01-30T01:38:41;3.57;;;3.23;;
7233;SDS011;3658;47.992;10.158;2024-01-30T01:41:09;3.67;;;3.30;;
7233;SDS011;3658;47.992;10.158;2024-01-30T01:43:36;3.60;;;3.30;;
7233;SDS011;3658;47.992;10.158;2024-01-30T01:46:03;3.63;;;3.23;;
7233;SDS011;3658;47.992;10.158;2024-01-30T01:48:30;4.00;;;3.20;;
7233;SDS011;3658;47.992;10.158;2024-01-30T01:50:57;3.77;;;3.37;;
7233;SDS011;3658;47.992;10.158;2024-01-30T01:53:24;3.60;;;3.30;;
7233;SDS011;3658;47.992;10.158;2024-01-30T01:55:52;3.50;;;3.17;;
7233;SDS011;3658;47.992;10.158;2024-01-30T01:58:22;3.77;;;3.07;;
7233;SDS011;3658;47.992;10.158;2024-01-30T02:00:53;4.73;;;3.23;;
7233;SDS011;3658;47.992;10.158;2024-01-30T02:03:21;3.20;;;2.90;;
7233;SDS011;3658;47.992;10.158;2024-01-30T02:05:47;3.30;;;3.00;;
7233;SDS011;3658;47.992;10.158;2024-01-30T02:08:15;3.37;;;3.07;;
7233;SDS011;3658;47.992;10.158;2024-01-30T02:10:42;3.73;;;2.90;;
7233;SDS011;3658;47.992;10.158;2024-01-30T02:13:08;3.00;;;2.70;;
7233;SDS011;3658;47.992;10.158;2024-01-30T02:15:36;3.10;;;2.47;;
7233;SDS011;3658;47.992;10.158;2024-01-30T02:18:03;3.07;;;2.67;;
7233;SDS011;3658;47.992;10.158;2024-01-30T02:20:30;3.07;;;2.77;;
7233;SDS011;3658;47.992;10.158;2024-01-30T02:23:02;3.10;;;2.80;;
7233;SDS011;3658;47.992;10.158;2024-01-30T02:25:30;4.27;;;2.67;;
7233;SDS011;3658;47.992;10.158;2024-01-30T02:27:57;3.40;;;2.80;;
7233;SDS011;3658;47.992;10.158;2024-01-30T02:30:24;3.23;;;2.70;;
7233;SDS011;3658;47.992;10.158;2024-01-30T02:32:51;2.53;;;2.33;;
7233;SDS011;3658;47.992;10.158;2024-01-30T02:35:18;2.73;;;2.53;;
7233;SDS011;3658;47.992;10.158;2024-01-30T02:37:44;4.03;;;2.70;;
7233;SDS011;3658;47.992;10.158;2024-01-30T02:40:13;4.03;;;2.60;;
7233;SDS011;3658;47.992;10.158;2024-01-30T02:42:40;2.90;;;2.53;;
7233;SDS011;3658;47.992;10.158;2024-01-30T02:45:07;3.30;;;2.77;;
7233;SDS011;3658;47.992;10.158;2024-01-30T02:47:35;3.30;;;2.77;;
7233;SDS011;3658;47.992;10.158;2024-01-30T02:50:02;2.90;;;2.60;;
7233;SDS011;3658;47.992;10.158;2024-01-30T02:52:30;2.77;;;2.47;;
7233;SDS011;3658;47.992;10.158;2024-01-30T02:54:56;2.73;;;2.43;;
7233;SDS011;3658;47.992;10.158;2024-01-30T02:57:24;2.83;;;2.43;;
7233;SDS011;3658;47.992;10.158;2024-01-30T02:59:51;3.20;;;2.70;;
7233;SDS011;3658;47.992;10.158;2024-01-30T03:02:18;2.67;;;2.23;;
7233;SDS011;3658;47.992;10.158;2024-01-30T03:04:45;3.00;;;2.40;;
7233;SDS011;3658;47.992;10.158;2024-01-30T03:07:12;4.17;;;2.63;;
7233;SDS011;3658;47.992;10.158;2024-01-30T03:09:40;2.60;;;2.30;;
7233;SDS011;3658;47.992;10.158;2024-01-30T03:12:07;2.33;;;2.13;;
7233;SDS011;3658;47.992;10.158;2024-01-30T03:14:35;2.40;;;2.20;;
7233;SDS011;3658;47.992;10.158;2024-01-30T03:17:02;2.43;;;2.20;;
7233;SDS011;3658;47.992;10.158;2024-01-30T03:19:29;2.47;;;2.27;;
7233;SDS011;3658;47.992;10.158;2024-01-30T03:21:56;2.60;;;2.30;;
7233;SDS011;3658;47.992;10.158;2024-01-30T03:24:23;2.33;;;2.13;;
7233;SDS011;3658;47.992;10.158;2024-01-30T03:26:49;2.20;;;2.00;;
7233;SDS011;3658;47.992;10.158;2024-01-30T03:29:16;2.50;;;2.20;;
7233;SDS011;3658;47.992;10.158;2024-01-30T03:31:44;3.40;;;2.40;;
7233;SDS011;3658;47.992;10.158;2024-01-30T03:34:11;2.67;;;2.20;;
7233;SDS011;3658;47.992;10.158;2024-01-30T03:36:38;3.47;;;2.10;;
7233;SDS011;3658;47.992;10.158;2024-01-30T03:39:05;2.30;;;2.10;;
7233;SDS011;3658;47.992;10.158;2024-01-30T03:41:31;2.50;;;2.20;;
7233;SDS011;3658;47.992;10.158;2024-01-30T03:43:58;2.17;;;1.97;;
7233;SDS011;3658;47.992;10.158;2024-01-30T03:46:25;2.20;;;2.00;;
7233;SDS011;3658;47.992;10.158;2024-01-30T03:48:53;2.20;;;2.00;;
7233;SDS011;3658;47.992;10.158;2024-01-30T03:51:20;2.23;;;2.03;;
7233;SDS011;3658;47.992;10.158;2024-01-30T03:53:47;2.30;;;2.10;;
7233;SDS011;3658;47.992;10.158;2024-01-30T03:56:14;2.10;;;1.90;;
7233;SDS011;3658;47.992;10.158;2024-01-30T03:58:40;2.30;;;2.10;;
7233;SDS011;3658;47.992;10.158;2024-01-30T04:01:07;2.37;;;2.17;;
7233;SDS011;3658;47.992;10.158;2024-01-30T04:03:38;2.20;;;2.00;;
7233;SDS011;3658;47.992;10.158;2024-01-30T04:06:07;1.80;;;1.70;;
7233;SDS011;3658;47.992;10.158;2024-01-30T04:08:33;2.23;;;2.00;;
7233;SDS011;3658;47.992;10.158;2024-01-30T04:11:02;2.23;;;2.00;;
7233;SDS011;3658;47.992;10.158;2024-01-30T04:13:30;2.00;;;1.80;;
7233;SDS011;3658;47.992;10.158;2024-01-30T04:15:58;2.17;;;1.97;;
7233;SDS011;3658;47.992;10.158;2024-01-30T04:18:26;2.17;;;1.97;;
7233;SDS011;3658;47.992;10.158;2024-01-30T04:20:53;2.17;;;1.97;;
7233;SDS011;3658;47.992;10.158;2024-01-30T04:23:21;2.13;;;1.93;;
7233;SDS011;3658;47.992;10.158;2024-01-30T04:25:48;2.20;;;2.00;;
7233;SDS011;3658;47.992;10.158;2024-01-30T04:28:15;2.27;;;1.97;;
7233;SDS011;3658;47.992;10.158;2024-01-30T04:30:41;2.40;;;2.20;;
7233;SDS011;3658;47.992;10.158;2024-01-30T04:33:08;1.80;;;1.70;;
7233;SDS011;3658;47.992;10.158;2024-01-30T04:35:36;2.10;;;1.90;;
7233;SDS011;3658;47.992;10.158;2024-01-30T04:38:03;2.23;;;2.00;;
7233;SDS011;3658;47.992;10.158;2024-01-30T04:40:31;2.10;;;1.90;;
7233;SDS011;3658;47.992;10.158;2024-01-30T04:42:58;1.83;;;1.73;;
7233;SDS011;3658;47.992;10.158;2024-01-30T04:45:24;1.93;;;1.73;;
7233;SDS011;3658;47.992;10.158;2024-01-30T04:47:51;2.30;;;1.83;;
7233;SDS011;3658;47.992;10.158;2024-01-30T04:50:18;2.13;;;1.80;;
7233;SDS011;3658;47.992;10.158;2024-01-30T04:52:45;1.90;;;1.70;;
7233;SDS011;3658;47.992;10.158;2024-01-30T04:55:12;2.10;;;1.90;;
7233;SDS011;3658;47.992;10.158;2024-01-30T04:57:40;1.83;;;1.73;;
7233;SDS011;3658;47.992;10.158;2024-01-30T05:00:07;2.10;;;1.90;;
7233;SDS011;3658;47.992;10.158;2024-01-30T05:02:36;2.07;;;1.87;;
7233;SDS011;3658;47.992;10.158;2024-01-30T05:05:02;1.73;;;1.63;;
7233;SDS011;3658;47.992;10.158;2024-01-30T05:07:29;1.70;;;1.60;;
7233;SDS011;3658;47.992;10.158;2024-01-30T05:09:56;2.00;;;1.77;;
7233;SDS011;3658;47.992;10.158;2024-01-30T05:12:23;1.80;;;1.70;;
7233;SDS011;3658;47.992;10.158;2024-01-30T05:14:51;1.80;;;1.70;;
7233;SDS011;3658;47.992;10.158;2024-01-30T05:17:18;2.17;;;1.97;;
7233;SDS011;3658;47.992;10.158;2024-01-30T05:19:45;1.93;;;1.80;;
7233;SDS011;3658;47.992;10.158;2024-01-30T05:22:11;1.60;;;1.50;;
7233;SDS011;3658;47.992;10.158;2024-01-30T05:24:40;1.90;;;1.80;;
7233;SDS011;3658;47.992;10.158;2024-01-30T05:27:07;2.30;;;1.80;;
7233;SDS011;3658;47.992;10.158;2024-01-30T05:29:34;2.00;;;1.70;;
7233;SDS011;3658;47.992;10.158;2024-01-30T05:32:02;1.93;;;1.70;;
7233;SDS011;3658;47.992;10.158;2024-01-30T05:34:30;2.13;;;1.93;;
7233;SDS011;3658;47.992;10.158;2024-01-30T05:36:57;1.80;;;1.70;;
7233;SDS011;3658;47.992;10.158;2024-01-30T05:39:23;1.90;;;1.70;;
7233;SDS011;3658;47.992;10.158;2024-01-30T05:41:50;2.00;;;1.70;;
7233;SDS011;3658;47.992;10.158;2024-01-30T05:44:17;1.90;;;1.60;;
7233;SDS011;3658;47.992;10.158;2024-01-30T05:46:44;2.17;;;1.90;;
7233;SDS011;3658;47.992;10.158;2024-01-30T05:49:12;2.00;;;1.80;;
7233;SDS011;3658;47.992;10.158;2024-01-30T05:51:39;1.50;;;1.40;;
7233;SDS011;3658;47.992;10.158;2024-01-30T05:54:05;2.00;;;1.77;;
7233;SDS011;3658;47.992;10.158;2024-01-30T05:56:31;1.73;;;1.63;;
7233;SDS011;3658;47.992;10.158;2024-01-30T05:58:58;2.03;;;1.90;;
7233;SDS011;3658;47.992;10.158;2024-01-30T06:01:25;1.90;;;1.60;;
7233;SDS011;3658;47.992;10.158;2024-01-30T06:03:52;2.00;;;1.87;;
7233;SDS011;3658;47.992;10.158;2024-01-30T06:06:20;3.80;;;1.87;;
7233;SDS011;3658;47.992;10.158;2024-01-30T06:08:47;2.87;;;2.07;;
7233;SDS011;3658;47.992;10.158;2024-01-30T06:11:13;3.30;;;1.70;;
7233;SDS011;3658;47.992;10.158;2024-01-30T06:13:40;3.20;;;1.70;;
7233;SDS011;3658;47.992;10.158;2024-01-30T06:16:09;1.87;;;1.70;;
7233;SDS011;3658;47.992;10.158;2024-01-30T06:18:36;5.03;;;1.83;;
7233;SDS011;3658;47.992;10.158;2024-01-30T06:21:04;6.83;;;2.60;;
7233;SDS011;3658;47.992;10.158;2024-01-30T06:23:32;5.50;;;1.80;;
7233;SDS011;3658;47.992;10.158;2024-01-30T06:25:59;2.17;;;1.60;;
7233;SDS011;3658;47.992;10.158;2024-01-30T06:28:25;4.53;;;1.83;;
7233;SDS011;3658;47.992;10.158;2024-01-30T06:30:52;2.10;;;1.70;;
7233;SDS011;3658;47.992;10.158;2024-01-30T06:33:19;4.53;;;2.00;;
7233;SDS011;3658;47.992;10.158;2024-01-30T06:35:46;2.80;;;1.70;;
7233;SDS011;3658;47.992;10.158;2024-01-30T06:38:13;2.87;;;2.10;;
7233;SDS011;3658;47.992;10.158;2024-01-30T06:40:41;3.70;;;2.07;;
7233;SDS011;3658;47.992;10.158;2024-01-30T06:43:08;4.73;;;2.13;;
7233;SDS011;3658;47.992;10.158;2024-01-30T06:45:36;2.93;;;1.80;;
7233;SDS011;3658;47.992;10.158;2024-01-30T06:48:03;2.43;;;1.87;;
7233;SDS011;3658;47.992;10.158;2024-01-30T06:50:30;3.90;;;2.03;;
7233;SDS011;3658;47.992;10.158;2024-01-30T06:52:57;4.87;;;2.00;;
7233;SDS011;3658;47.992;10.158;2024-01-30T06:55:24;2.33;;;1.90;;
7233;SDS011;3658;47.992;10.158;2024-01-30T06:57:53;2.43;;;1.77;;
7233;SDS011;3658;47.992;10.158;2024-01-30T07:00:19;4.27;;;1.80;;
7233;SDS011;3658;47.992;10.158;2024-01-30T07:02:47;3.40;;;2.00;;
7233;SDS011;3658;47.992;10.158;2024-01-30T07:05:14;1.70;;;1.60;;
7233;SDS011;3658;47.992;10.158;2024-01-30T07:07:42;6.97;;;2.17;;
7233;SDS011;3658;47.992;10.158;2024-01-30T07:10:09;4.43;;;2.20;;
7233;SDS011;3658;47.992;10.158;2024-01-30T07:12:36;3.70;;;1.87;;
7233;SDS011;3658;47.992;10.158;2024-01-30T07:15:04;3.77;;;2.00;;
7233;SDS011;3658;47.992;10.158;2024-01-30T07:17:33;2.13;;;1.93;;
7233;SDS011;3658;47.992;10.158;2024-01-30T07:19:59;3.83;;;2.30;;
7233;SDS011;3658;47.992;10.158;2024-01-30T07:22:28;2.50;;;2.30;;
7233;SDS011;3658;47.992;10.158;2024-01-30T07:24:55;3.33;;;2.20;;
7233;SDS011;3658;47.992;10.158;2024-01-30T07:27:22;2.30;;;1.97;;
7233;SDS011;3658;47.992;10.158;2024-01-30T07:29:48;2.13;;;1.80;;
7233;SDS011;3658;47.992;10.158;2024-01-30T07:32:16;3.17;;;2.10;;
7233;SDS011;3658;47.992;10.158;2024-01-30T07:34:44;3.77;;;2.13;;
7233;SDS011;3658;47.992;10.158;2024-01-30T07:37:11;3.40;;;1.90;;
7233;SDS011;3658;47.992;10.158;2024-01-30T07:39:40;2.40;;;2.20;;
7233;SDS011;3658;47.992;10.158;2024-01-30T07:42:07;3.10;;;1.90;;
7233;SDS011;3658;47.992;10.158;2024-01-30T07:44:34;3.93;;;2.20;;
7233;SDS011;3658;47.992;10.158;2024-01-30T07:47:00;2.47;;;1.90;;
7233;SDS011;3658;47.992;10.158;2024-01-30T07:49:29;2.30;;;2.10;;
7233;SDS011;3658;47.992;10.158;2024-01-30T07:51:56;2.70;;;1.80;;
7233;SDS011;3658;47.992;10.158;2024-01-30T07:54:22;3.33;;;2.27;;
7233;SDS011;3658;47.992;10.158;2024-01-30T07:56:49;2.17;;;1.83;;
7233;SDS011;3658;47.992;10.158;2024-01-30T07:59:16;3.00;;;2.20;;
7233;SDS011;3658;47.992;10.158;2024-01-30T08:01:44;3.40;;;2.00;;
7233;SDS011;3658;47.992;10.158;2024-01-30T08:04:11;2.13;;;1.93;;
7233;SDS011;3658;47.992;10.158;2024-01-30T08:06:39;2.40;;;2.17;;
7233;SDS011;3658;47.992;10.158;2024-01-30T08:09:06;2.20;;;2.00;;
7233;SDS011;3658;47.992;10.158;2024-01-30T08:11:33;2.23;;;2.03;;
7233;SDS011;3658;47.992;10.158;2024-01-30T08:14:00;2.50;;;2.13;;
7233;SDS011;3658;47.992;10.158;2024-01-30T08:16:27;2.63;;;2.10;;
7233;SDS011;3658;47.992;10.158;2024-01-30T08:18:53;3.57;;;2.27;;
7233;SDS011;3658;47.992;10.158;2024-01-30T08:21:22;3.80;;;2.00;;
7233;SDS011;3658;47.992;10.158;2024-01-30T08:23:50;2.63;;;2.13;;
7233;SDS011;3658;47.992;10.158;2024-01-30T08:26:17;3.83;;;2.33;;
7233;SDS011;3658;47.992;10.158;2024-01-30T08:28:44;3.47;;;2.10;;
7233;SDS011;3658;47.992;10.158;2024-01-30T08:31:11;2.40;;;2.20;;
7233;SDS011;3658;47.992;10.158;2024-01-30T08:33:38;3.57;;;2.07;;
7233;SDS011;3658;47.992;10.158;2024-01-30T08:36:05;2.07;;;1.87;;
7233;SDS011;3658;47.992;10.158;2024-01-30T08:38:32;5.80;;;2.20;;
7233;SDS011;3658;47.992;10.158;2024-01-30T08:41:00;2.50;;;2.07;;
7233;SDS011;3658;47.992;10.158;2024-01-30T08:43:28;4.67;;;2.10;;
7233;SDS011;3658;47.992;10.158;2024-01-30T08:45:54;3.17;;;2.20;;
7233;SDS011;3658;47.992;10.158;2024-01-30T08:48:22;3.97;;;2.20;;
7233;SDS011;3658;47.992;10.158;2024-01-30T08:50:50;7.17;;;2.30;;
7233;SDS011;3658;47.992;10.158;2024-01-30T08:53:17;2.73;;;2.20;;
7233;SDS011;3658;47.992;10.158;2024-01-30T08:55:43;14.47;;;2.57;;
7233;SDS011;3658;47.992;10.158;2024-01-30T08:58:12;4.63;;;2.73;;
7233;SDS011;3658;47.992;10.158;2024-01-30T09:00:39;7.27;;;2.20;;
7233;SDS011;3658;47.992;10.158;2024-01-30T09:03:05;3.03;;;2.10;;
7233;SDS011;3658;47.992;10.158;2024-01-30T09:05:32;5.00;;;2.07;;
7233;SDS011;3658;47.992;10.158;2024-01-30T09:07:59;4.63;;;2.23;;
7233;SDS011;3658;47.992;10.158;2024-01-30T09:10:26;3.60;;;2.00;;
7233;SDS011;3658;47.992;10.158;2024-01-30T09:12:52;4.23;;;2.20;;
7233;SDS011;3658;47.992;10.158;2024-01-30T09:15:21;2.70;;;2.07;;
7233;SDS011;3658;47.992;10.158;2024-01-30T09:17:48;7.43;;;1.97;;
7233;SDS011;3658;47.992;10.158;2024-01-30T09:20:15;5.83;;;2.10;;
7233;SDS011;3658;47.992;10.158;2024-01-30T09:22:42;4.63;;;2.00;;
7233;SDS011;3658;47.992;10.158;2024-01-30T09:25:09;2.20;;;1.77;;
7233;SDS011;3658;47.992;10.158;2024-01-30T09:27:36;3.10;;;2.00;;
7233;SDS011;3658;47.992;10.158;2024-01-30T09:30:03;3.20;;;2.00;;
7233;SDS011;3658;47.992;10.158;2024-01-30T09:32:32;2.50;;;1.80;;
7233;SDS011;3658;47.992;10.158;2024-01-30T09:34:58;2.37;;;1.80;;
7233;SDS011;3658;47.992;10.158;2024-01-30T09:37:25;2.13;;;1.93;;
7233;SDS011;3658;47.992;10.158;2024-01-30T09:39:52;3.73;;;2.10;;
7233;SDS011;3658;47.992;10.158;2024-01-30T09:42:21;2.73;;;1.93;;
7233;SDS011;3658;47.992;10.158;2024-01-30T09:44:54;1.90;;;1.70;;
7233;SDS011;3658;47.992;10.158;2024-01-30T09:47:21;2.37;;;1.90;;
7233;SDS011;3658;47.992;10.158;2024-01-30T09:49:50;1.93;;;1.73;;
7233;SDS011;3658;47.992;10.158;2024-01-30T09:52:17;2.10;;;1.60;;
7233;SDS011;3658;47.992;10.158;2024-01-30T09:54:44;4.33;;;1.90;;
7233;SDS011;3658;47.992;10.158;2024-01-30T09:57:11;4.50;;;2.00;;
7233;SDS011;3658;47.992;10.158;2024-01-30T09:59:38;3.23;;;1.67;;
7233;SDS011;3658;47.992;10.158;2024-01-30T10:02:05;1.77;;;1.67;;
7233;SDS011;3658;47.992;10.158;2024-01-30T10:04:32;2.47;;;1.80;;
7233;SDS011;3658;47.992;10.158;2024-01-30T10:07:01;2.43;;;1.97;;
7233;SDS011;3658;47.992;10.158;2024-01-30T10:09:31;2.53;;;1.83;;
7233;SDS011;3658;47.992;10.158;2024-01-30T10:11:59;1.60;;;1.50;;
7233;SDS011;3658;47.992;10.158;2024-01-30T10:14:26;2.23;;;1.80;;
7233;SDS011;3658;47.992;10.158;2024-01-30T10:16:52;1.67;;;1.57;;
7233;SDS011;3658;47.992;10.158;2024-01-30T10:19:19;1.73;;;1.63;;
7233;SDS011;3658;47.992;10.158;2024-01-30T10:21:46;2.93;;;2.10;;
7233;SDS011;3658;47.992;10.158;2024-01-30T10:24:14;4.40;;;2.10;;
7233;SDS011;3658;47.992;10.158;2024-01-30T10:26:43;1.60;;;1.50;;
7233;SDS011;3658;47.992;10.158;2024-01-30T10:29:10;3.10;;;1.80;;
7233;SDS011;3658;47.992;10.158;2024-01-30T10:31:36;3.90;;;2.03;;
7233;SDS011;3658;47.992;10.158;2024-01-30T10:34:03;1.70;;;1.60;;
7233;SDS011;3658;47.992;10.158;2024-01-30T10:36:30;1.87;;;1.73;;
7233;SDS011;3658;47.992;10.158;2024-01-30T10:39:07;1.53;;;1.43;;
7233;SDS011;3658;47.992;10.158;2024-01-30T10:41:42;2.13;;;1.60;;
7233;SDS011;3658;47.992;10.158;2024-01-30T10:44:10;6.70;;;2.00;;
7233;SDS011;3658;47.992;10.158;2024-01-30T10:46:37;1.80;;;1.70;;
7233;SDS011;3658;47.992;10.158;2024-01-30T10:49:05;2.03;;;1.83;;
7233;SDS011;3658;47.992;10.158;2024-01-30T10:51:32;1.77;;;1.60;;
7233;SDS011;3658;47.992;10.158;2024-01-30T10:54:00;2.10;;;1.63;;
7233;SDS011;3658;47.992;10.158;2024-01-30T10:56:29;1.70;;;1.50;;
7233;SDS011;3658;47.992;10.158;2024-01-30T10:58:57;1.50;;;1.40;;
7233;SDS011;3658;47.992;10.158;2024-01-30T11:01:24;1.70;;;1.60;;
7233;SDS011;3658;47.992;10.158;2024-01-30T11:03:53;1.93;;;1.40;;
7233;SDS011;3658;47.992;10.158;2024-01-30T11:06:21;1.33;;;1.23;;
7233;SDS011;3658;47.992;10.158;2024-01-30T11:08:59;1.97;;;1.60;;
7233;SDS011;3658;47.992;10.158;2024-01-30T11:11:29;2.40;;;1.53;;
7233;SDS011;3658;47.992;10.158;2024-01-30T11:13:55;2.07;;;1.80;;
7233;SDS011;3658;47.992;10.158;2024-01-30T11:16:30;4.23;;;1.50;;
7233;SDS011;3658;47.992;10.158;2024-01-30T11:18:59;2.23;;;1.60;;
7233;SDS011;3658;47.992;10.158;2024-01-30T11:21:27;2.13;;;1.80;;
7233;SDS011;3658;47.992;10.158;2024-01-30T11:23:55;1.63;;;1.53;;
7233;SDS011;3658;47.992;10.158;2024-01-30T11:26:23;4.50;;;1.63;;
7233;SDS011;3658;47.992;10.158;2024-01-30T11:28:53;1.90;;;1.70;;
7233;SDS011;3658;47.992;10.158;2024-01-30T11:31:23;3.57;;;1.80;;
7233;SDS011;3658;47.992;10.158;2024-01-30T11:33:52;3.10;;;1.50;;
7233;SDS011;3658;47.992;10.158;2024-01-30T11:36:19;2.90;;;1.60;;
7233;SDS011;3658;47.992;10.158;2024-01-30T11:38:52;2.40;;;1.77;;
7233;SDS011;3658;47.992;10.158;2024-01-30T11:41:20;2.63;;;1.70;;
7233;SDS011;3658;47.992;10.158;2024-01-30T11:43:51;3.80;;;1.73;;
7233;SDS011;3658;47.992;10.158;2024-01-30T11:46:18;2.70;;;1.60;;
7233;SDS011;3658;47.992;10.158;2024-01-30T11:48:46;2.87;;;2.17;;
7233;SDS011;3658;47.992;10.158;2024-01-30T11:51:13;5.83;;;1.90;;
7233;SDS011;3658;47.992;10.158;2024-01-30T11:53:41;2.83;;;1.63;;
7233;SDS011;3658;47.992;10.158;2024-01-30T11:56:07;5.87;;;1.90;;
7233;SDS011;3658;47.992;10.158;2024-01-30T11:58:34;5.23;;;1.80;;
7233;SDS011;3658;47.992;10.158;2024-01-30T12:01:01;2.83;;;1.93;;
7233;SDS011;3658;47.992;10.158;2024-01-30T12:03:28;4.43;;;1.90;;
7233;SDS011;3658;47.992;10.158;2024-01-30T12:05:56;2.07;;;1.63;;
7233;SDS011;3658;47.992;10.158;2024-01-30T12:08:24;4.03;;;1.67;;
7233;SDS011;3658;47.992;10.158;2024-01-30T12:10:55;4.93;;;2.20;;
7233;SDS011;3658;47.992;10.158;2024-01-30T12:13:23;4.33;;;2.20;;
7233;SDS011;3658;47.992;10.158;2024-01-30T12:15:50;7.50;;;2.07;;
7233;SDS011;3658;47.992;10.158;2024-01-30T12:18:18;3.37;;;2.00;;
7233;SDS011;3658;47.992;10.158;2024-01-30T12:20:47;5.23;;;2.20;;
7233;SDS011;3658;47.992;10.158;2024-01-30T12:23:24;5.97;;;2.30;;
7233;SDS011;3658;47.992;10.158;2024-01-30T12:25:52;3.37;;;1.60;;
7233;SDS011;3658;47.992;10.158;2024-01-30T12:28:19;3.13;;;1.60;;
7233;SDS011;3658;47.992;10.158;2024-01-30T12:30:46;3.53;;;1.60;;
7233;SDS011;3658;47.992;10.158;2024-01-30T12:33:15;3.87;;;1.73;;
7233;SDS011;3658;47.992;10.158;2024-01-30T12:35:45;6.40;;;1.80;;
7233;SDS011;3658;47.992;10.158;2024-01-30T12:38:13;6.40;;;2.03;;
7233;SDS011;3658;47.992;10.158;2024-01-30T12:40:40;5.03;;;1.77;;
7233;SDS011;3658;47.992;10.158;2024-01-30T12:43:07;6.43;;;2.03;;
7233;SDS011;3658;47.992;10.158;2024-01-30T12:45:35;5.93;;;1.80;;
7233;SDS011;3658;47.992;10.158;2024-01-30T12:48:02;3.53;;;2.10;;
7233;SDS011;3658;47.992;10.158;2024-01-30T12:50:29;5.53;;;1.90;;
7233;SDS011;3658;47.992;10.158;2024-01-30T12:52:56;4.13;;;1.93;;
7233;SDS011;3658;47.992;10.158;2024-01-30T12:55:25;4.60;;;1.80;;
7233;SDS011;3658;47.992;10.158;2024-01-30T12:57:53;5.80;;;2.13;;
7233;SDS011;3658;47.992;10.158;2024-01-30T13:00:20;5.17;;;1.70;;
7233;SDS011;3658;47.992;10.158;2024-01-30T13:02:47;8.27;;;1.80;;
7233;SDS011;3658;47.992;10.158;2024-01-30T13:05:14;7.37;;;1.80;;
7233;SDS011;3658;47.992;10.158;2024-01-30T13:07:41;4.00;;;2.00;;
7233;SDS011;3658;47.992;10.158;2024-01-30T13:10:08;2.67;;;1.70;;
7233;SDS011;3658;47.992;10.158;2024-01-30T13:12:36;7.43;;;1.60;;
7233;SDS011;3658;47.992;10.158;2024-01-30T13:15:03;2.57;;;1.73;;
7233;SDS011;3658;47.992;10.158;2024-01-30T13:17:31;2.50;;;1.67;;
7233;SDS011;3658;47.992;10.158;2024-01-30T13:19:58;3.10;;;1.70;;
7233;SDS011;3658;47.992;10.158;2024-01-30T13:22:25;1.70;;;1.57;;
7233;SDS011;3658;47.992;10.158;2024-01-30T13:24:51;2.97;;;1.80;;
7233;SDS011;3658;47.992;10.158;2024-01-30T13:27:18;3.33;;;1.80;;
7233;SDS011;3658;47.992;10.158;2024-01-30T13:29:48;3.03;;;1.70;;
7233;SDS011;3658;47.992;10.158;2024-01-30T13:32:14;3.30;;;1.57;;
7233;SDS011;3658;47.992;10.158;2024-01-30T13:34:41;3.27;;;1.83;;
7233;SDS011;3658;47.992;10.158;2024-01-30T13:37:08;5.70;;;1.47;;
7233;SDS011;3658;47.992;10.158;2024-01-30T13:39:35;6.17;;;1.77;;
7233;SDS011;3658;47.992;10.158;2024-01-30T13:42:02;6.50;;;2.30;;
7233;SDS011;3658;47.992;10.158;2024-01-30T13:44:29;5.23;;;3.67;;
7233;SDS011;3658;47.992;10.158;2024-01-30T13:48:44;4.63;;;3.50;;
7233;SDS011;3658;47.992;10.158;2024-01-30T13:51:10;4.63;;;3.63;;
7233;SDS011;3658;47.992;10.158;2024-01-30T13:53:38;5.37;;;3.27;;
7233;SDS011;3658;47.992;10.158;2024-01-30T13:56:05;4.27;;;3.43;;
7233;SDS011;3658;47.992;10.158;2024-01-30T13:58:32;4.93;;;3.63;;
7233;SDS011;3658;47.992;10.158;2024-01-30T14:01:01;4.30;;;3.90;;
7233;SDS011;3658;47.992;10.158;2024-01-30T14:03:27;5.60;;;3.43;;
7233;SDS011;3658;47.992;10.158;2024-01-30T14:05:56;5.83;;;3.70;;
7233;SDS011;3658;47.992;10.158;2024-01-30T14:08:23;5.63;;;3.63;;
7233;SDS011;3658;47.992;10.158;2024-01-30T14:10:52;4.40;;;3.63;;
7233;SDS011;3658;47.992;10.158;2024-01-30T14:13:19;5.97;;;4.77;;
7233;SDS011;3658;47.992;10.158;2024-01-30T14:15:47;4.77;;;3.57;;
7233;SDS011;3658;47.992;10.158;2024-01-30T14:18:14;6.17;;;3.57;;
7233;SDS011;3658;47.992;10.158;2024-01-30T14:20:41;4.03;;;3.23;;
7233;SDS011;3658;47.992;10.158;2024-01-30T14:23:09;4.57;;;3.10;;
7233;SDS011;3658;47.992;10.158;2024-01-30T14:25:36;4.10;;;3.00;;
7233;SDS011;3658;47.992;10.158;2024-01-30T14:28:03;6.33;;;2.90;;
7233;SDS011;3658;47.992;10.158;2024-01-30T14:30:30;2.70;;;2.50;;
7233;SDS011;3658;47.992;10.158;2024-01-30T14:32:57;3.43;;;2.70;;
7233;SDS011;3658;47.992;10.158;2024-01-30T14:35:24;3.47;;;2.40;;
7233;SDS011;3658;47.992;10.158;2024-01-30T14:37:51;3.97;;;2.10;;
7233;SDS011;3658;47.992;10.158;2024-01-30T14:40:19;3.40;;;2.20;;
7233;SDS011;3658;47.992;10.158;2024-01-30T14:42:46;3.73;;;2.50;;
7233;SDS011;3658;47.992;10.158;2024-01-30T14:45:13;2.30;;;2.10;;
7233;SDS011;3658;47.992;10.158;2024-01-30T14:47:41;2.70;;;1.93;;
7233;SDS011;3658;47.992;10.158;2024-01-30T14:50:07;2.97;;;2.20;;
7233;SDS011;3658;47.992;10.158;2024-01-30T14:52:35;2.60;;;2.10;;
7233;SDS011;3658;47.992;10.158;2024-01-30T14:55:02;3.03;;;2.23;;
7233;SDS011;3658;47.992;10.158;2024-01-30T14:57:31;3.70;;;2.07;;
7233;SDS011;3658;47.992;10.158;2024-01-30T14:59:59;2.43;;;2.23;;
7233;SDS011;3658;47.992;10.158;2024-01-30T15:02:26;2.10;;;1.90;;